SAVY/PMY METAR and TAF weather

Enter ICAO airport designator
Station Type Date Time Source
SAVY METAR 2019/06/24 17:30 UTC NOAA

SAVY 241730Z 23012KT 9999 RERA SCT025 OVC060 08/05 Q1001


Station Type Date Time Source
SAVY Decoded METAR 2019/06/24 17:30 UTC NOAA

Puerto Madryn, CHT, Argentina (SAVY) 42-45-33S 065-06-10W
Jun 24, 2019 - 01:30 PM EDT / 2019.06.24 1730 UTC
Wind: from the SW (230 degrees) at 14 MPH (12 KT):0
Visibility: greater than 7 mile(s):0
Sky conditions: overcast
Weather: rain during the past hour
Temperature: 46 F (8 C)
Dew Point: 41 F (5 C)
Relative Humidity: 81%
Pressure (altimeter): 29.56 in. Hg (1001 hPa)
ob: SAVY 241730Z 23012KT 9999 RERA SCT025 OVC060 08/05 Q1001
cycle: 17

Station Type Date Time Source
SAVY TAF UTC NOAA

Error!

Example: see airport list